Time;durP1;ratioP1;P1;durP2;ratioP2;P2;SDS_P1;SDS_P2;PMS_P1;PMS_P2;Temp;Humidity;BMP_temperature;BMP_pressure;BME280_temperature;BME280_humidity;BME280_pressure;Samples;Min_cycle;Max_cycle;Signal;HPM_P1;HPM_P2
2023/05/30 00:00:08;;;;;;;3.63;2.50;;;;;;;18.84;50.21;99752.03;332282;28;17284;-71
2023/05/30 00:00:20;;;;;;;3.47;2.55;;;;;;;18.84;50.32;99753.81;335967;28;4651;-71
2023/05/30 00:00:33;;;;;;;4.15;2.60;;;;;;;18.80;50.53;99747.91;334517;28;18258;-72
2023/05/30 00:00:45;;;;;;;4.88;2.83;;;;;;;18.76;50.61;99752.50;336439;28;5219;-71
2023/05/30 00:01:00;;;;;;;5.38;2.78;;;;;;;18.77;50.72;99751.56;333353;28;18158;-72
2023/05/30 00:01:13;;;;;;;4.93;2.50;;;;;;;18.76;50.51;99752.50;334060;28;18835;-71
2023/05/30 00:01:25;;;;;;;4.60;2.42;;;;;;;18.76;50.42;99752.50;336499;28;5092;-71
2023/05/30 00:01:38;;;;;;;4.30;2.50;;;;;;;18.78;50.24;99749.75;332581;28;18837;-71
2023/05/30 00:01:51;;;;;;;4.30;2.60;;;;;;;18.79;50.39;99745.34;336314;28;5444;-71
2023/05/30 00:02:03;;;;;;;4.15;2.60;;;;;;;18.78;50.37;99749.75;334115;28;19005;-70
2023/05/30 00:02:15;;;;;;;3.97;2.58;;;;;;;18.80;50.31;99752.34;339089;28;5257;-71
2023/05/30 00:02:28;;;;;;;4.18;2.50;;;;;;;18.75;50.18;99750.81;334512;28;18161;-71
2023/05/30 00:02:43;;;;;;;4.15;2.40;;;;;;;18.73;50.31;99755.34;336406;28;4604;-71
2023/05/30 00:02:56;;;;;;;4.90;2.50;;;;;;;18.67;51.11;99753.09;336457;28;18947;-70
2023/05/30 00:03:09;;;;;;;6.72;2.80;;;;;;;18.69;51.12;99751.22;334847;28;18126;-71
2023/05/30 00:03:23;;;;;;;5.93;2.92;;;;;;;18.69;51.19;99751.22;333033;28;10042;-72
2023/05/30 00:03:36;;;;;;;4.47;3.05;;;;;;;18.71;50.92;99749.31;335562;28;5207;-71
2023/05/30 00:03:49;;;;;;;5.18;3.00;;;;;;;18.70;50.70;99752.06;334265;28;19402;-71
2023/05/30 00:04:05;;;;;;;4.75;2.60;;;;;;;18.69;51.38;99745.94;337473;28;18886;-71
2023/05/30 00:04:17;;;;;;;4.47;2.60;;;;;;;18.71;50.81;99751.97;333794;28;18993;-72
2023/05/30 00:04:30;;;;;;;3.67;2.53;;;;;;;18.70;50.82;99752.88;337083;28;4705;-71
2023/05/30 00:04:42;;;;;;;3.75;2.65;;;;;;;18.72;50.65;99755.44;333825;28;16561;-71
2023/05/30 00:04:55;;;;;;;5.28;2.80;;;;;;;18.72;50.63;99752.78;337329;28;5447;-72
2023/05/30 00:05:07;;;;;;;6.40;2.88;;;;;;;18.72;50.29;99753.63;333644;28;18005;-71
2023/05/30 00:05:19;;;;;;;3.97;2.50;;;;;;;18.74;50.31;99749.13;337211;28;5410;-71
2023/05/30 00:05:31;;;;;;;4.40;2.60;;;;;;;18.76;50.11;99752.50;334401;28;6874;-72
2023/05/30 00:05:43;;;;;;;4.25;2.65;;;;;;;18.79;50.08;99755.88;335469;28;5309;-71
2023/05/30 00:05:55;;;;;;;4.35;2.65;;;;;;;18.78;49.98;99755.03;336400;28;4503;-71
2023/05/30 00:06:07;;;;;;;3.75;2.53;;;;;;;18.76;49.92;99754.28;335836;28;19408;-71
2023/05/30 00:06:19;;;;;;;4.00;2.50;;;;;;;18.76;49.91;99752.50;337617;28;4527;-72
2023/05/30 00:06:31;;;;;;;4.00;2.40;;;;;;;18.77;49.81;99754.19;334467;28;9963;-72
2023/05/30 00:06:43;;;;;;;3.80;2.40;;;;;;;18.80;50.02;99757.59;337278;28;4497;-72
2023/05/30 00:06:56;;;;;;;3.17;2.50;;;;;;;18.80;50.15;99757.59;342909;28;4612;-71
2023/05/30 00:07:08;;;;;;;3.40;2.53;;;;;;;18.80;50.39;99757.59;340196;28;18095;-71
2023/05/30 00:07:20;;;;;;;3.08;2.38;;;;;;;18.82;49.93;99756.56;339694;28;5515;-71
2023/05/30 00:07:32;;;;;;;3.20;2.40;;;;;;;18.84;49.62;99759.09;330735;29;19419;-71
2023/05/30 00:07:44;;;;;;;3.58;2.50;;;;;;;18.82;49.59;99753.91;333948;29;4500;-71
2023/05/30 00:07:56;;;;;;;3.63;2.55;;;;;;;18.80;50.05;99758.44;330921;29;4607;-71
2023/05/30 00:08:08;;;;;;;3.50;2.58;;;;;;;18.82;49.94;99753.09;334657;29;4566;-71
2023/05/30 00:08:21;;;;;;;4.45;2.60;;;;;;;18.84;49.92;99759.94;333522;29;4606;-72
2023/05/30 00:08:33;;;;;;;5.13;2.70;;;;;;;18.84;49.60;99759.94;329132;29;18148;-71
2023/05/30 00:08:45;;;;;;;4.22;2.47;;;;;;;18.85;49.51;99758.97;332315;29;5257;-71
2023/05/30 00:08:57;;;;;;;3.95;2.33;;;;;;;18.85;49.46;99758.13;331085;28;5321;-72
2023/05/30 00:09:09;;;;;;;4.45;2.40;;;;;;;18.83;49.62;99762.66;333720;29;4560;-71
2023/05/30 00:09:22;;;;;;;5.13;2.65;;;;;;;18.77;50.33;99758.59;330276;29;18202;-72
2023/05/30 00:09:34;;;;;;;5.13;2.63;;;;;;;18.76;50.14;99763.03;333981;28;4721;-71
2023/05/30 00:09:46;;;;;;;4.35;2.50;;;;;;;18.75;49.90;99758.72;333706;28;4660;-71
2023/05/30 00:09:58;;;;;;;3.67;2.35;;;;;;;18.79;49.81;99766.41;330323;29;18051;-72
2023/05/30 00:10:10;;;;;;;3.20;2.20;;;;;;;18.81;49.80;99764.53;333369;29;4703;-71
2023/05/30 00:10:22;;;;;;;3.53;2.40;;;;;;;18.79;50.19;99758.50;332933;28;5416;-72
2023/05/30 00:10:34;;;;;;;3.92;2.60;;;;;;;18.74;50.12;99759.66;334955;28;5707;-72
2023/05/30 00:10:46;;;;;;;4.63;2.70;;;;;;;18.74;50.25;99757.00;336149;28;4641;-71
2023/05/30 00:10:58;;;;;;;4.40;2.65;;;;;;;18.74;49.97;99764.91;333479;28;18119;-72
2023/05/30 00:11:14;;;;;;;4.00;2.53;;;;;;;18.73;50.37;99763.25;335897;29;5572;-70
2023/05/30 00:11:28;;;;;;;3.97;2.47;;;;;;;18.75;49.91;99763.13;332544;28;18101;-72
2023/05/30 00:11:40;;;;;;;5.28;2.42;;;;;;;18.74;49.80;99764.91;336075;29;5419;-71
2023/05/30 00:11:54;;;;;;;5.72;2.35;;;;;;;18.72;49.59;99756.28;338387;28;15179;-71
2023/05/30 00:12:06;;;;;;;6.25;2.55;;;;;;;18.73;49.73;99757.09;332851;28;10344;-72
2023/05/30 00:12:18;;;;;;;5.10;2.60;;;;;;;18.73;49.88;99763.25;335818;28;4712;-71
2023/05/30 00:12:30;;;;;;;4.82;2.60;;;;;;;18.72;49.66;99764.16;337016;28;4630;-71
2023/05/30 00:12:46;;;;;;;3.35;2.60;;;;;;;18.74;49.50;99770.19;339273;28;17793;-70
2023/05/30 00:12:59;;;;;;;3.33;2.55;;;;;;;18.69;50.08;99761.75;339458;28;17089;-72
2023/05/30 00:13:13;;;;;;;3.53;2.40;;;;;;;18.68;50.06;99760.03;335079;28;11099;-72
2023/05/30 00:13:28;;;;;;;4.00;2.45;;;;;;;18.69;49.97;99767.00;339679;28;5540;-71
2023/05/30 00:13:44;;;;;;;4.45;2.70;;;;;;;18.71;49.80;99764.25;337739;28;18131;-71
2023/05/30 00:13:57;;;;;;;4.32;2.83;;;;;;;18.70;50.12;99763.41;337581;28;17876;-72
2023/05/30 00:14:10;;;;;;;4.03;2.80;;;;;;;18.70;50.31;99773.13;341496;28;18194;-71
2023/05/30 00:14:23;;;;;;;3.72;2.72;;;;;;;18.59;50.50;99771.16;338991;28;8999;-72
2023/05/30 00:14:36;;;;;;;3.63;2.70;;;;;;;18.62;49.72;99776.22;340965;28;5379;-71
2023/05/30 00:14:49;;;;;;;5.22;2.45;;;;;;;18.60;50.04;99767.59;337954;28;17441;-71
2023/05/30 00:15:02;;;;;;;6.03;2.28;;;;;;;18.63;49.79;99767.38;340072;28;4595;-71
2023/05/30 00:15:16;;;;;;;4.80;2.50;;;;;;;18.67;49.83;99768.91;337763;28;18167;-71
2023/05/30 00:15:28;;;;;;;3.53;2.60;;;;;;;18.68;49.57;99770.56;337605;28;17038;-72
2023/05/30 00:15:40;;;;;;;4.65;2.58;;;;;;;18.64;49.42;99770.88;339980;28;5237;-71
2023/05/30 00:15:54;;;;;;;5.15;2.60;;;;;;;18.67;49.29;99766.28;337644;28;18334;-71
2023/05/30 00:16:07;;;;;;;4.88;2.65;;;;;;;18.66;49.22;99767.19;340252;28;5074;-71
2023/05/30 00:16:19;;;;;;;3.47;2.42;;;;;;;18.59;49.17;99765.06;331883;28;19090;-71
2023/05/30 00:16:31;;;;;;;3.05;2.35;;;;;;;18.59;49.40;99771.16;333718;28;5636;-71
2023/05/30 00:16:44;;;;;;;3.63;2.50;;;;;;;18.54;49.49;99771.44;335390;29;17111;-71
2023/05/30 00:16:58;;;;;;;4.70;2.80;;;;;;;18.54;49.28;99770.63;334428;28;4815;-71
2023/05/30 00:17:10;;;;;;;4.47;2.75;;;;;;;18.59;49.64;99772.94;335980;28;4647;-71
2023/05/30 00:17:22;;;;;;;4.28;2.75;;;;;;;18.60;49.77;99772.84;338651;28;16283;-72
2023/05/30 00:17:37;;;;;;;4.80;2.63;;;;;;;18.63;49.78;99772.66;342009;28;6145;-71
2023/05/30 00:17:52;;;;;;;4.93;2.60;;;;;;;18.66;49.53;99767.19;338213;28;17285;-71
2023/05/30 00:18:05;;;;;;;4.60;2.50;;;;;;;18.63;49.63;99764.75;338512;28;17925;-70
2023/05/30 00:18:17;;;;;;;4.85;2.50;;;;;;;18.63;49.51;99767.38;337343;28;17989;-71
2023/05/30 00:18:34;;;;;;;4.25;2.45;;;;;;;18.66;49.42;99772.47;341301;28;4593;-71
2023/05/30 00:18:46;;;;;;;3.63;2.45;;;;;;;18.70;49.37;99770.47;337439;28;17845;-71
2023/05/30 00:19:00;;;;;;;3.55;2.30;;;;;;;18.68;49.51;99767.09;340815;28;4694;-71
2023/05/30 00:19:13;;;;;;;4.05;2.25;;;;;;;18.70;49.48;99770.47;331119;28;17795;-71
2023/05/30 00:19:25;;;;;;;4.85;2.50;;;;;;;18.63;49.28;99772.66;338516;28;5517;-71
2023/05/30 00:19:37;;;;;;;4.18;2.50;;;;;;;18.59;48.93;99771.16;332764;28;19372;-72
2023/05/30 00:19:52;;;;;;;3.63;2.47;;;;;;;18.54;49.16;99773.25;336011;28;5465;-71
2023/05/30 00:20:08;;;;;;;3.90;2.50;;;;;;;18.58;49.44;99774.75;334042;28;18060;-70
2023/05/30 00:20:24;;;;;;;4.15;2.58;;;;;;;18.62;49.97;99773.59;332066;28;18900;-71
2023/05/30 00:20:36;;;;;;;3.60;2.60;;;;;;;18.66;49.37;99777.72;333637;28;17711;-71
2023/05/30 00:20:49;;;;;;;4.65;2.58;;;;;;;18.63;49.78;99772.66;331990;28;17954;-71
2023/05/30 00:21:03;;;;;;;5.00;2.50;;;;;;;18.65;50.23;99773.41;336341;28;4648;-71
2023/05/30 00:21:17;;;;;;;5.43;2.50;;;;;;;18.71;49.73;99774.78;334014;28;17986;-71
2023/05/30 00:21:31;;;;;;;4.90;2.60;;;;;;;18.75;49.60;99774.50;338678;28;17913;-71
2023/05/30 00:21:45;;;;;;;4.15;2.70;;;;;;;18.65;48.86;99775.19;336106;28;17962;-71
2023/05/30 00:21:57;;;;;;;3.53;2.60;;;;;;;18.57;49.12;99778.31;331679;29;8617;-71
2023/05/30 00:22:12;;;;;;;3.45;2.50;;;;;;;18.57;49.21;99775.66;332924;28;4602;-71
2023/05/30 00:22:25;;;;;;;3.60;2.45;;;;;;;18.59;49.24;99779.06;334003;28;19294;-71
2023/05/30 00:22:40;;;;;;;3.58;2.33;;;;;;;18.62;49.32;99778.88;332094;28;19954;-71
2023/05/30 00:22:53;;;;;;;3.53;2.20;;;;;;;18.59;49.61;99775.59;337237;28;18195;-71
2023/05/30 00:23:05;;;;;;;4.55;2.30;;;;;;;18.61;49.20;99777.16;337517;28;4704;-71
2023/05/30 00:23:18;;;;;;;4.75;2.40;;;;;;;18.62;49.17;99784.13;332938;28;5529;-71
2023/05/30 00:23:31;;;;;;;3.50;2.40;;;;;;;18.52;49.96;99775.13;336239;28;4654;-72
2023/05/30 00:23:45;;;;;;;4.00;2.50;;;;;;;18.54;49.23;99778.50;337247;28;18051;-71
2023/05/30 00:23:57;;;;;;;5.00;2.85;;;;;;;18.55;49.60;99774.94;332788;28;9865;-71
2023/05/30 00:24:09;;;;;;;4.50;2.78;;;;;;;18.55;49.13;99780.19;335409;28;4839;-70
2023/05/30 00:24:22;;;;;;;3.80;2.60;;;;;;;18.56;49.67;99781.91;335707;28;5170;-71
2023/05/30 00:24:34;;;;;;;3.47;2.72;;;;;;;18.60;49.45;99779.91;333772;28;19041;-71
2023/05/30 00:24:47;;;;;;;3.65;2.67;;;;;;;18.49;49.69;99775.31;339247;28;4878;-71
2023/05/30 00:24:59;;;;;;;3.50;2.38;;;;;;;18.51;49.57;99776.06;332969;28;17773;-71
2023/05/30 00:25:12;;;;;;;3.75;2.30;;;;;;;18.49;49.68;99784.09;334884;28;10464;-72
2023/05/30 00:25:24;;;;;;;4.03;2.35;;;;;;;18.50;49.62;99782.28;336165;28;4516;-71
2023/05/30 00:25:37;;;;;;;4.22;2.40;;;;;;;18.52;49.37;99777.78;342645;28;5350;-71
2023/05/30 00:25:49;;;;;;;4.15;2.63;;;;;;;18.48;50.12;99776.28;335261;28;17957;-71
2023/05/30 00:26:01;;;;;;;5.47;2.80;;;;;;;18.44;49.73;99773.00;336857;28;4453;-70
2023/05/30 00:26:13;;;;;;;5.25;2.72;;;;;;;18.38;49.40;99777.81;335238;28;18442;-71
2023/05/30 00:26:26;;;;;;;4.00;2.60;;;;;;;18.39;49.35;99784.75;336256;28;5237;-71
2023/05/30 00:26:38;;;;;;;4.20;2.55;;;;;;;18.46;49.88;99780.78;337792;28;17883;-71
2023/05/30 00:26:50;;;;;;;3.88;2.60;;;;;;;18.49;49.76;99780.59;340565;28;4621;-71
2023/05/30 00:27:02;;;;;;;4.22;2.58;;;;;;;18.53;49.89;99779.44;338480;28;9842;-71
2023/05/30 00:27:14;;;;;;;3.70;2.50;;;;;;;18.49;50.23;99775.31;335230;28;4654;-71
2023/05/30 00:27:27;;;;;;;5.13;2.50;;;;;;;18.50;49.98;99783.13;334283;28;10748;-71
2023/05/30 00:27:39;;;;;;;4.97;2.47;;;;;;;18.48;49.75;99784.16;331267;29;18248;-71
2023/05/30 00:27:51;;;;;;;5.00;2.53;;;;;;;18.46;50.03;99776.38;333671;28;4762;-70
2023/05/30 00:28:07;;;;;;;4.38;2.50;;;;;;;18.34;49.45;99777.97;337505;28;16710;-71
2023/05/30 00:28:19;;;;;;;3.85;2.60;;;;;;;18.20;50.00;99775.38;332197;28;17878;-71
2023/05/30 00:28:31;;;;;;;4.05;2.65;;;;;;;18.19;51.10;99781.59;336775;28;4673;-71
2023/05/30 00:28:43;;;;;;;4.47;2.60;;;;;;;18.26;50.62;99780.25;331497;29;16156;-71
2023/05/30 00:28:55;;;;;;;4.80;2.58;;;;;;;18.32;50.28;99779.88;334538;29;5101;-71
2023/05/30 00:29:07;;;;;;;5.05;2.47;;;;;;;18.23;50.38;99775.19;331787;29;16123;-71
2023/05/30 00:29:20;;;;;;;5.28;2.45;;;;;;;18.23;50.34;99777.81;333128;29;5340;-71
2023/05/30 00:29:32;;;;;;;4.57;2.58;;;;;;;18.31;50.45;99782.59;332168;29;5161;-72
2023/05/30 00:29:46;;;;;;;4.13;2.60;;;;;;;18.35;50.37;99784.94;333810;29;5296;-71
2023/05/30 00:29:59;;;;;;;3.72;2.53;;;;;;;18.25;50.46;99770.69;332085;28;17665;-71
2023/05/30 00:30:12;;;;;;;3.17;2.40;;;;;;;18.18;50.08;99785.16;336289;28;4573;-70
2023/05/30 00:30:25;;;;;;;3.67;2.50;;;;;;;18.21;50.33;99776.22;338984;28;18178;-72
2023/05/30 00:30:37;;;;;;;4.47;2.90;;;;;;;18.24;50.09;99776.88;331797;28;17116;-72
2023/05/30 00:30:49;;;;;;;4.75;2.80;;;;;;;18.30;50.20;99776.47;335109;28;5099;-72
2023/05/30 00:31:01;;;;;;;4.15;2.50;;;;;;;18.34;49.91;99777.97;334324;28;5361;-70
2023/05/30 00:31:13;;;;;;;3.85;2.50;;;;;;;18.39;49.98;99779.47;332985;28;19332;-72
2023/05/30 00:31:26;;;;;;;4.55;2.58;;;;;;;18.43;49.81;99776.56;336034;28;5068;-71
2023/05/30 00:31:38;;;;;;;5.07;2.58;;;;;;;18.48;49.45;99784.16;332430;28;17805;-71
2023/05/30 00:31:50;;;;;;;5.00;2.65;;;;;;;18.45;49.52;99782.59;336126;28;4498;-71
2023/05/30 00:32:02;;;;;;;3.92;2.60;;;;;;;18.48;49.45;99779.75;333482;28;10119;-71
2023/05/30 00:32:14;;;;;;;3.65;2.63;;;;;;;18.48;50.01;99785.00;335950;28;5586;-71
2023/05/30 00:32:26;;;;;;;3.70;2.50;;;;;;;18.51;49.93;99786.59;335567;29;4653;-71
2023/05/30 00:32:38;;;;;;;5.18;2.63;;;;;;;18.52;49.75;99785.66;330259;28;18207;-71
2023/05/30 00:32:50;;;;;;;4.97;2.70;;;;;;;18.53;49.79;99782.06;334794;28;5481;-71
2023/05/30 00:33:02;;;;;;;4.53;2.67;;;;;;;18.51;50.30;99783.97;331508;28;18805;-71
2023/05/30 00:33:15;;;;;;;4.50;2.75;;;;;;;18.54;49.99;99783.78;336637;28;4490;-71
2023/05/30 00:33:27;;;;;;;4.95;2.60;;;;;;;18.56;49.80;99784.53;336896;28;8890;-71
2023/05/30 00:33:39;;;;;;;4.32;2.47;;;;;;;18.55;50.14;99785.47;337489;28;18798;-71
2023/05/30 00:33:51;;;;;;;3.83;2.58;;;;;;;18.53;49.86;99792.59;336930;28;5189;-70
2023/05/30 00:34:03;;;;;;;4.43;2.70;;;;;;;18.44;49.22;99782.69;330561;29;17742;-71
2023/05/30 00:34:16;;;;;;;4.75;2.60;;;;;;;18.43;49.89;99786.22;332002;29;4639;-71
2023/05/30 00:34:28;;;;;;;4.55;2.60;;;;;;;18.38;49.96;99788.31;330415;28;18048;-71
2023/05/30 00:34:40;;;;;;;4.20;2.60;;;;;;;18.33;50.08;99786.84;333977;29;5015;-71
2023/05/30 00:34:52;;;;;;;4.43;2.75;;;;;;;18.39;49.97;99785.59;333189;28;10500;-72
2023/05/30 00:35:05;;;;;;;4.57;2.75;;;;;;;18.41;50.17;99789.00;340086;28;5177;-70
2023/05/30 00:35:17;;;;;;;5.28;2.70;;;;;;;18.36;49.59;99788.41;342007;28;5303;-71
2023/05/30 00:35:29;;;;;;;4.90;2.67;;;;;;;18.34;49.54;99783.25;337338;28;18215;-71
2023/05/30 00:35:41;;;;;;;4.85;2.60;;;;;;;18.39;49.41;99784.75;341828;28;4660;-71
2023/05/30 00:35:53;;;;;;;4.20;2.60;;;;;;;18.36;49.31;99781.34;332145;29;18070;-72
2023/05/30 00:36:05;;;;;;;3.47;2.60;;;;;;;18.30;49.52;99781.75;332966;29;4793;-71
2023/05/30 00:36:17;;;;;;;3.20;2.60;;;;;;;18.35;49.74;99786.72;329780;28;16610;-71
2023/05/30 00:36:30;;;;;;;3.20;2.58;;;;;;;18.27;49.82;99787.22;332020;28;5040;-70
2023/05/30 00:36:43;;;;;;;3.20;2.40;;;;;;;18.33;49.99;99792.09;329897;28;18027;-71
2023/05/30 00:36:55;;;;;;;3.40;2.38;;;;;;;18.39;49.65;99790.88;332228;28;5188;-71
2023/05/30 00:37:08;;;;;;;3.80;2.45;;;;;;;18.40;49.56;99792.53;332035;28;5569;-71
2023/05/30 00:37:20;;;;;;;3.88;2.50;;;;;;;18.45;49.69;99784.34;332739;28;19423;-71
2023/05/30 00:37:32;;;;;;;4.30;2.53;;;;;;;18.44;50.29;99787.94;329571;28;16182;-71
2023/05/30 00:37:44;;;;;;;4.95;2.78;;;;;;;18.38;50.30;99788.31;332376;29;4569;-71
2023/05/30 00:37:56;;;;;;;4.97;2.83;;;;;;;18.29;49.92;99787.09;333101;28;4526;-71
2023/05/30 00:38:09;;;;;;;5.07;2.78;;;;;;;18.14;50.50;99781.84;329799;29;17821;-71
2023/05/30 00:38:21;;;;;;;5.15;2.70;;;;;;;18.21;50.73;99792.88;332764;29;5294;-71
2023/05/30 00:38:33;;;;;;;4.78;2.63;;;;;;;18.24;50.43;99787.38;338820;28;17972;-71
2023/05/30 00:38:45;;;;;;;4.90;2.58;;;;;;;18.31;50.13;99787.84;341356;28;5610;-71
2023/05/30 00:38:57;;;;;;;4.00;2.50;;;;;;;18.29;50.32;99785.34;340975;28;10179;-71
2023/05/30 00:39:09;;;;;;;4.10;2.42;;;;;;;18.33;50.21;99792.09;339018;28;17242;-71
2023/05/30 00:39:21;;;;;;;4.30;2.55;;;;;;;18.31;50.14;99790.47;341211;28;5356;-71
2023/05/30 00:39:33;;;;;;;4.00;2.47;;;;;;;18.35;49.89;99790.22;338476;28;4635;-71
2023/05/30 00:39:45;;;;;;;4.43;2.70;;;;;;;18.30;49.86;99786.16;335404;28;5339;-71
2023/05/30 00:39:57;;;;;;;4.40;2.80;;;;;;;18.23;49.99;99790.97;340226;28;4746;-71
2023/05/30 00:40:09;;;;;;;4.50;2.78;;;;;;;18.22;50.01;99786.63;333675;28;17149;-71
2023/05/30 00:40:21;;;;;;;5.20;2.90;;;;;;;18.23;50.05;99790.13;333004;29;4672;-72
2023/05/30 00:40:33;;;;;;;5.10;2.63;;;;;;;18.26;50.14;99797.81;330872;29;19111;-71
2023/05/30 00:40:45;;;;;;;4.43;2.53;;;;;;;18.32;50.09;99794.81;334117;28;4564;-71
2023/05/30 00:40:57;;;;;;;4.85;2.72;;;;;;;18.34;50.39;99788.50;331598;28;17355;-71
2023/05/30 00:41:10;;;;;;;6.57;2.75;;;;;;;18.40;50.07;99791.72;334016;28;4658;-71
2023/05/30 00:41:22;;;;;;;6.78;2.63;;;;;;;18.44;50.25;99790.56;332379;28;11367;-71
2023/05/30 00:41:34;;;;;;;5.32;2.58;;;;;;;18.47;49.78;99788.59;332262;28;4611;-71
2023/05/30 00:41:46;;;;;;;4.03;2.45;;;;;;;18.49;49.62;99793.75;332792;28;4935;-71
2023/05/30 00:41:58;;;;;;;3.67;2.30;;;;;;;18.55;49.81;99798.63;330371;28;18260;-71
2023/05/30 00:42:10;;;;;;;4.60;2.45;;;;;;;18.58;50.11;99792.34;334257;28;5335;-71
2023/05/30 00:42:23;;;;;;;4.35;2.58;;;;;;;18.50;50.35;99790.19;335606;28;16090;-71
2023/05/30 00:42:35;;;;;;;4.15;2.60;;;;;;;18.51;50.22;99794.50;339972;28;5319;-71
2023/05/30 00:42:46;;;;;;;3.90;2.60;;;;;;;18.54;50.29;99795.16;339698;28;5212;-70
2023/05/30 00:42:59;;;;;;;3.80;2.60;;;;;;;18.59;49.94;99796.63;333851;28;18086;-71
2023/05/30 00:43:11;;;;;;;3.22;2.50;;;;;;;18.58;50.08;99793.16;337756;28;5482;-71
2023/05/30 00:43:23;;;;;;;3.70;2.50;;;;;;;18.53;49.61;99792.59;333761;28;19167;-71
2023/05/30 00:43:37;;;;;;;4.53;2.60;;;;;;;18.49;49.76;99791.09;334411;28;4633;-70
2023/05/30 00:43:49;;;;;;;4.40;2.60;;;;;;;18.36;49.94;99797.16;331564;28;17934;-71
2023/05/30 00:44:01;;;;;;;3.72;2.50;;;;;;;18.41;49.90;99793.38;335990;28;5332;-71
2023/05/30 00:44:13;;;;;;;3.28;2.40;;;;;;;18.45;50.10;99790.47;337125;28;18155;-71
2023/05/30 00:44:25;;;;;;;3.80;2.50;;;;;;;18.34;49.66;99793.78;340462;28;4667;-71
2023/05/30 00:44:37;;;;;;;3.72;2.50;;;;;;;18.35;50.28;99790.22;337709;28;16669;-72
2023/05/30 00:44:49;;;;;;;4.43;2.60;;;;;;;18.43;50.30;99791.50;340911;28;4650;-71
2023/05/30 00:45:01;;;;;;;4.75;2.60;;;;;;;18.45;50.51;99798.38;341502;28;5457;-71
2023/05/30 00:45:13;;;;;;;4.97;2.70;;;;;;;18.49;50.19;99791.97;337448;28;19346;-71
2023/05/30 00:45:25;;;;;;;4.00;2.75;;;;;;;18.44;50.84;99796.66;341085;28;4624;-71
2023/05/30 00:45:38;;;;;;;3.95;2.65;;;;;;;18.36;50.70;99791.88;334336;28;10652;-71
2023/05/30 00:45:53;;;;;;;3.67;2.50;;;;;;;18.41;50.29;99793.38;332989;28;18344;-71
2023/05/30 00:46:10;;;;;;;5.05;2.60;;;;;;;18.46;50.27;99796.59;332332;28;16162;-72
2023/05/30 00:46:29;;;;;;;5.07;2.70;;;;;;;18.48;50.16;99786.81;334383;29;5157;-71
2023/05/30 00:46:42;;;;;;;5.28;3.03;;;;;;;18.46;49.98;99792.16;331386;28;17827;-71
2023/05/30 00:46:54;;;;;;;5.65;3.00;;;;;;;18.44;50.12;99787.94;335680;28;4642;-71
2023/05/30 00:47:07;;;;;;;6.38;3.00;;;;;;;18.47;50.07;99791.22;341750;28;4557;-71
2023/05/30 00:47:19;;;;;;;6.90;2.80;;;;;;;18.50;50.75;99787.56;338044;28;18007;-71
2023/05/30 00:47:31;;;;;;;7.10;2.95;;;;;;;18.51;50.09;99789.22;339839;28;5666;-70
2023/05/30 00:47:43;;;;;;;6.85;3.03;;;;;;;18.52;49.87;99791.78;335985;28;18689;-71
2023/05/30 00:47:58;;;;;;;7.50;2.85;;;;;;;18.53;49.62;99789.97;334010;28;4938;-70
2023/05/30 00:48:11;;;;;;;5.32;2.72;;;;;;;18.53;49.69;99792.59;334439;28;18006;-71
2023/05/30 00:48:24;;;;;;;4.35;2.70;;;;;;;18.57;49.66;99794.09;333330;28;17243;-71
2023/05/30 00:48:37;;;;;;;4.93;2.70;;;;;;;18.51;49.44;99792.72;335905;28;5450;-71
2023/05/30 00:48:49;;;;;;;4.40;2.58;;;;;;;18.35;50.06;99790.22;332760;28;17995;-71
2023/05/30 00:49:02;;;;;;;4.38;2.58;;;;;;;18.34;50.17;99788.50;336686;28;5317;-71
2023/05/30 00:49:15;;;;;;;4.10;2.50;;;;;;;18.29;49.85;99789.72;332839;28;16443;-71
2023/05/30 00:49:27;;;;;;;3.95;2.63;;;;;;;18.34;50.04;99791.13;336265;28;4561;-71
2023/05/30 00:49:40;;;;;;;4.00;2.70;;;;;;;18.23;50.16;99795.38;334008;28;18260;-71
2023/05/30 00:49:53;;;;;;;3.83;2.75;;;;;;;18.22;50.39;99791.91;334560;28;4597;-71
2023/05/30 00:50:07;;;;;;;3.77;2.50;;;;;;;18.26;50.90;99801.28;331789;28;17813;-70
2023/05/30 00:50:20;;;;;;;4.13;2.35;;;;;;;18.30;50.12;99787.00;334991;28;18215;-71
2023/05/30 00:50:36;;;;;;;4.78;2.60;;;;;;;18.36;50.46;99791.88;339477;28;10134;-72
2023/05/30 00:50:50;;;;;;;5.90;2.97;;;;;;;18.44;50.27;99787.94;337139;28;17569;-71
2023/05/30 00:51:06;;;;;;;5.22;2.88;;;;;;;18.46;49.87;99791.31;337695;28;10411;-71
2023/05/30 00:51:19;;;;;;;4.13;2.80;;;;;;;18.21;49.93;99787.59;336560;28;18305;-71
2023/05/30 00:51:32;;;;;;;4.28;2.70;;;;;;;18.21;50.28;99797.25;338085;28;5273;-71
2023/05/30 00:51:44;;;;;;;3.72;2.60;;;;;;;18.25;51.16;99794.38;335566;28;16452;-71
2023/05/30 00:51:56;;;;;;;3.65;2.50;;;;;;;18.32;50.47;99795.66;339902;28;4664;-71
2023/05/30 00:52:09;;;;;;;3.90;2.40;;;;;;;18.39;50.32;99790.00;337113;28;18440;-71
2023/05/30 00:52:21;;;;;;;4.03;2.47;;;;;;;18.40;50.78;99791.72;338101;28;4979;-71
2023/05/30 00:52:34;;;;;;;5.00;2.70;;;;;;;18.42;50.81;99795.09;333682;28;18928;-71
2023/05/30 00:52:50;;;;;;;5.80;2.70;;;;;;;18.46;50.60;99786.06;332277;29;4608;-71
2023/05/30 00:53:03;;;;;;;5.00;2.53;;;;;;;18.47;50.27;99787.72;330720;28;17095;-71
2023/05/30 00:53:18;;;;;;;4.20;2.50;;;;;;;18.50;49.96;99787.56;334287;28;18900;-71
2023/05/30 00:53:31;;;;;;;3.72;2.42;;;;;;;18.54;50.12;99789.03;333209;28;19173;-71
2023/05/30 00:53:43;;;;;;;3.42;2.35;;;;;;;18.51;49.91;99794.50;331996;29;4486;-71
2023/05/30 00:53:56;;;;;;;4.65;2.42;;;;;;;18.50;49.72;99787.56;334696;29;5044;-71
2023/05/30 00:54:08;;;;;;;4.63;2.45;;;;;;;18.36;50.02;99791.88;330911;28;17842;-71
2023/05/30 00:54:21;;;;;;;4.15;2.70;;;;;;;18.34;50.12;99788.50;333252;29;4687;-71
2023/05/30 00:54:40;;;;;;;5.55;2.80;;;;;;;18.33;50.47;99789.47;335645;28;18113;-70
2023/05/30 00:54:53;;;;;;;5.63;2.67;;;;;;;18.36;50.41;99789.25;335626;28;17947;-71
2023/05/30 00:55:05;;;;;;;3.95;2.50;;;;;;;18.39;50.34;99790.00;333344;29;18191;-71
2023/05/30 00:55:18;;;;;;;4.50;2.67;;;;;;;18.42;50.24;99787.19;331578;28;10335;-71
2023/05/30 00:55:31;;;;;;;5.75;2.67;;;;;;;18.44;50.41;99787.94;334653;29;4636;-71
2023/05/30 00:55:43;;;;;;;4.88;2.60;;;;;;;18.48;50.37;99792.06;330501;29;15970;-71
2023/05/30 00:55:55;;;;;;;3.55;2.47;;;;;;;18.49;49.93;99785.84;334562;29;5213;-71
2023/05/30 00:56:08;;;;;;;3.20;2.50;;;;;;;18.50;50.07;99787.56;331644;29;10613;-71
2023/05/30 00:56:22;;;;;;;3.63;2.40;;;;;;;18.52;50.04;99785.66;333210;29;4568;-71
2023/05/30 00:56:36;;;;;;;4.63;2.67;;;;;;;18.53;50.67;99792.59;330348;28;17822;-71
2023/05/30 00:56:48;;;;;;;4.75;2.70;;;;;;;18.54;50.03;99789.88;332686;28;7042;-71
2023/05/30 00:57:01;;;;;;;4.57;2.65;;;;;;;18.41;49.94;99788.13;334712;29;5374;-71
2023/05/30 00:57:14;;;;;;;4.65;2.60;;;;;;;18.10;50.39;99782.97;331980;28;18274;-72
2023/05/30 00:57:28;;;;;;;4.70;2.72;;;;;;;18.08;50.53;99786.66;335834;28;4530;-70
2023/05/30 00:57:40;;;;;;;3.88;2.63;;;;;;;18.01;50.70;99787.97;332219;28;18104;-71
2023/05/30 00:57:53;;;;;;;3.90;2.60;;;;;;;18.01;50.88;99794.09;333024;29;10291;-71
2023/05/30 00:58:06;;;;;;;5.85;2.70;;;;;;;18.07;50.66;99787.59;338916;28;5884;-71
2023/05/30 00:58:19;;;;;;;5.88;2.60;;;;;;;18.04;51.13;99783.38;339045;28;9907;-71
2023/05/30 00:58:31;;;;;;;6.50;2.60;;;;;;;18.14;50.62;99791.53;342629;28;5838;-71
2023/05/30 00:58:43;;;;;;;5.03;2.58;;;;;;;18.17;50.83;99788.72;339169;28;11667;-71
2023/05/30 00:58:55;;;;;;;3.35;2.53;;;;;;;18.23;50.91;99785.72;342624;28;5950;-70
2023/05/30 00:59:07;;;;;;;3.85;2.60;;;;;;;18.30;50.56;99787.00;334695;28;10484;-71
2023/05/30 00:59:20;;;;;;;4.55;2.67;;;;;;;18.31;50.97;99783.44;331130;28;17242;-70
2023/05/30 00:59:32;;;;;;;4.97;2.60;;;;;;;18.36;50.42;99791.88;333674;28;4655;-71
2023/05/30 00:59:45;;;;;;;4.75;2.67;;;;;;;18.39;50.40;99784.75;332293;28;18302;-71
2023/05/30 00:59:57;;;;;;;4.07;2.60;;;;;;;18.42;50.34;99789.81;337126;28;4547;-70
2023/05/30 01:00:10;;;;;;;5.30;2.80;;;;;;;18.43;50.01;99787.09;338298;28;18113;-71
2023/05/30 01:00:25;;;;;;;5.55;2.97;;;;;;;18.43;50.20;99780.97;338704;28;10110;-71
2023/05/30 01:00:38;;;;;;;4.05;2.78;;;;;;;18.44;50.33;99790.56;339053;28;4785;-71
2023/05/30 01:00:51;;;;;;;3.58;2.50;;;;;;;18.41;50.00;99782.84;338481;28;17921;-71
2023/05/30 01:01:03;;;;;;;3.80;2.55;;;;;;;18.46;50.19;99780.78;335395;28;11152;-71
2023/05/30 01:01:15;;;;;;;4.38;2.67;;;;;;;18.49;50.98;99777.94;336218;28;4630;-70